createdAt,value
2023-03-19T00:00:32.836Z,7.60
2023-03-19T00:03:01.060Z,7.60
2023-03-19T00:05:29.024Z,7.60
2023-03-19T00:07:56.898Z,7.50
2023-03-19T00:10:24.797Z,7.50
2023-03-19T00:12:52.668Z,7.40
2023-03-19T00:15:20.551Z,7.40
2023-03-19T00:17:49.771Z,7.30
2023-03-19T00:20:18.216Z,7.40
2023-03-19T00:22:46.153Z,7.20
2023-03-19T00:25:16.074Z,7.20
2023-03-19T00:27:44.515Z,7.20
2023-03-19T00:30:13.796Z,7.10
2023-03-19T00:32:42.126Z,7.00
2023-03-19T00:35:11.805Z,7.20
2023-03-19T00:37:39.713Z,6.90
2023-03-19T00:40:10.198Z,6.90
2023-03-19T00:42:38.246Z,6.80
2023-03-19T00:45:07.049Z,6.80
2023-03-19T00:47:34.966Z,6.80
2023-03-19T00:50:02.864Z,6.80
2023-03-19T00:52:32.406Z,6.70
2023-03-19T00:55:00.276Z,6.80
2023-03-19T00:57:28.154Z,6.70
2023-03-19T00:59:56.066Z,6.70
2023-03-19T01:02:23.949Z,6.60
2023-03-19T01:04:51.913Z,6.60
2023-03-19T01:07:19.803Z,6.60
2023-03-19T01:09:49.057Z,6.60
2023-03-19T01:12:19.317Z,6.50
2023-03-19T01:14:47.238Z,6.40
2023-03-19T01:17:15.300Z,6.30
2023-03-19T01:19:43.142Z,6.20
2023-03-19T01:22:11.285Z,6.40
2023-03-19T01:24:39.140Z,6.20
2023-03-19T01:27:08.648Z,6.10
2023-03-19T01:29:36.829Z,6.00
2023-03-19T01:32:06.046Z,5.90
2023-03-19T01:34:33.908Z,5.90
2023-03-19T01:37:01.808Z,6.10
2023-03-19T01:39:29.658Z,5.90
2023-03-19T01:42:01.576Z,6.20
2023-03-19T01:44:33.105Z,6.00
2023-03-19T01:47:05.733Z,5.70
2023-03-19T01:49:34.308Z,5.60
2023-03-19T01:52:06.054Z,5.70
2023-03-19T01:54:34.840Z,5.50
2023-03-19T01:57:06.652Z,5.60
2023-03-19T01:59:38.949Z,5.50
2023-03-19T02:02:10.763Z,6.10
2023-03-19T02:04:41.970Z,5.70
2023-03-19T02:07:12.486Z,5.50
2023-03-19T02:09:41.916Z,5.40
2023-03-19T02:12:10.816Z,5.40
2023-03-19T02:14:40.155Z,5.40
2023-03-19T02:17:08.690Z,5.30
2023-03-19T02:19:41.373Z,5.30
2023-03-19T02:22:11.981Z,5.30
2023-03-19T02:24:46.500Z,5.20
2023-03-19T02:27:15.985Z,5.30
2023-03-19T02:29:44.135Z,5.30
2023-03-19T02:32:12.816Z,5.30
2023-03-19T02:34:42.319Z,5.50
2023-03-19T02:37:15.959Z,5.20
2023-03-19T02:39:50.679Z,5.20
2023-03-19T02:42:22.063Z,5.20
2023-03-19T02:44:49.903Z,5.40
2023-03-19T02:47:17.855Z,5.30
2023-03-19T02:49:45.984Z,5.70
2023-03-19T02:52:14.151Z,5.20
2023-03-19T02:54:42.019Z,6.00
2023-03-19T02:57:10.044Z,5.40
2023-03-19T02:59:39.922Z,5.20
2023-03-19T03:02:08.274Z,5.10
2023-03-19T03:04:37.209Z,5.30
2023-03-19T03:07:06.132Z,5.00
2023-03-19T03:09:34.058Z,5.00
2023-03-19T03:12:02.019Z,4.90
2023-03-19T03:14:30.009Z,5.00
2023-03-19T03:17:00.359Z,4.80
2023-03-19T03:19:28.220Z,4.90
2023-03-19T03:21:56.155Z,5.00
2023-03-19T03:24:24.215Z,4.90
2023-03-19T03:26:52.093Z,5.10
2023-03-19T03:29:20.644Z,5.20
2023-03-19T03:31:48.557Z,5.10
2023-03-19T03:34:17.832Z,5.70
2023-03-19T03:36:46.771Z,5.20
2023-03-19T03:39:14.863Z,5.00
2023-03-19T03:41:42.728Z,5.70
2023-03-19T03:44:10.601Z,5.50
2023-03-19T03:46:38.442Z,5.90
2023-03-19T03:49:06.329Z,5.00
2023-03-19T03:51:35.542Z,5.50
2023-03-19T03:54:03.858Z,5.80
2023-03-19T03:56:33.196Z,5.00
2023-03-19T03:59:02.163Z,5.10
2023-03-19T04:01:30.304Z,5.20
2023-03-19T04:03:58.509Z,5.00
2023-03-19T04:06:28.260Z,5.20
2023-03-19T04:08:57.507Z,5.20
2023-03-19T04:11:25.759Z,5.90
2023-03-19T04:13:56.527Z,6.00
2023-03-19T04:16:24.588Z,5.60
2023-03-19T04:18:52.740Z,6.20
2023-03-19T04:21:21.243Z,5.40
2023-03-19T04:23:49.136Z,5.30
2023-03-19T04:26:18.360Z,5.40
2023-03-19T04:28:46.209Z,5.40
2023-03-19T04:31:14.149Z,5.70
2023-03-19T04:33:42.080Z,5.50
2023-03-19T04:36:10.078Z,5.90
2023-03-19T04:38:38.183Z,5.60
2023-03-19T04:41:06.220Z,6.30
2023-03-19T04:43:35.443Z,5.70
2023-03-19T04:46:03.300Z,5.80
2023-03-19T04:48:32.103Z,5.70
2023-03-19T04:50:59.975Z,5.80
2023-03-19T04:53:28.286Z,6.00
2023-03-19T04:55:56.383Z,5.80
2023-03-19T04:58:24.255Z,6.30
2023-03-19T05:00:54.143Z,6.00
2023-03-19T05:03:22.394Z,6.00
2023-03-19T05:05:50.233Z,6.30
2023-03-19T05:08:18.250Z,6.90
2023-03-19T05:10:46.127Z,6.20
2023-03-19T05:13:14.008Z,6.20
2023-03-19T05:15:43.403Z,6.50
2023-03-19T05:18:13.544Z,6.00
2023-03-19T05:20:42.459Z,6.20
2023-03-19T05:23:10.456Z,6.20
2023-03-19T05:25:38.389Z,6.30
2023-03-19T05:28:07.434Z,6.20
2023-03-19T05:30:35.940Z,6.30
2023-03-19T05:33:04.574Z,6.60
2023-03-19T05:35:34.565Z,6.30
2023-03-19T05:38:02.437Z,6.20
2023-03-19T05:40:31.147Z,6.20
2023-03-19T05:42:59.043Z,6.70
2023-03-19T05:45:27.309Z,6.10
2023-03-19T05:47:55.178Z,6.10
2023-03-19T05:50:23.102Z,6.10
2023-03-19T05:52:52.405Z,6.10
2023-03-19T05:55:20.240Z,5.90
2023-03-19T05:57:48.094Z,6.00
2023-03-19T06:00:17.064Z,6.00
2023-03-19T06:02:45.647Z,6.00
2023-03-19T06:05:13.619Z,6.00
2023-03-19T06:07:41.469Z,6.30
2023-03-19T06:10:12.012Z,6.00
2023-03-19T06:12:39.920Z,6.10
2023-03-19T06:15:12.202Z,6.10
2023-03-19T06:17:40.080Z,6.20
2023-03-19T06:20:08.546Z,6.30
2023-03-19T06:22:36.803Z,6.30
2023-03-19T06:25:05.157Z,6.40
2023-03-19T06:27:34.358Z,6.40
2023-03-19T06:30:02.239Z,6.50
2023-03-19T06:32:30.356Z,6.50
2023-03-19T06:34:58.216Z,6.60
2023-03-19T06:37:26.910Z,7.20
2023-03-19T06:39:55.466Z,6.80
2023-03-19T06:42:23.791Z,6.90
2023-03-19T06:44:53.717Z,7.40
2023-03-19T06:47:21.684Z,7.20
2023-03-19T06:49:49.514Z,7.30
2023-03-19T06:52:17.435Z,7.40
2023-03-19T06:54:45.319Z,7.80
2023-03-19T06:57:13.254Z,8.10
2023-03-19T06:59:41.146Z,8.30
2023-03-19T07:02:12.822Z,8.60
2023-03-19T07:04:40.724Z,8.80
2023-03-19T07:07:21.576Z,9.00
2023-03-19T07:09:49.549Z,9.20
2023-03-19T07:12:17.548Z,9.30
2023-03-19T07:14:45.769Z,9.50
2023-03-19T07:17:14.963Z,9.50
2023-03-19T07:19:42.798Z,9.70
2023-03-19T07:22:10.817Z,9.70
2023-03-19T07:24:38.668Z,9.80
2023-03-19T07:27:06.613Z,9.80
2023-03-19T07:29:34.510Z,9.90
2023-03-19T07:32:02.430Z,10.00
2023-03-19T07:34:31.706Z,10.20
2023-03-19T07:36:59.577Z,10.40
2023-03-19T07:39:27.432Z,10.60
2023-03-19T07:41:55.429Z,10.80
2023-03-19T07:44:23.304Z,11.10
2023-03-19T07:46:51.160Z,11.30
2023-03-19T07:49:19.080Z,11.70
2023-03-19T07:51:48.269Z,12.10
2023-03-19T07:54:16.212Z,12.40
2023-03-19T07:56:44.167Z,13.10
2023-03-19T07:59:12.389Z,13.00
2023-03-19T08:01:40.529Z,13.40
2023-03-19T08:04:08.573Z,13.60
2023-03-19T08:06:36.459Z,14.80
2023-03-19T08:09:05.867Z,13.70
2023-03-19T08:11:34.039Z,13.70
2023-03-19T08:14:01.958Z,13.70
2023-03-19T08:16:29.880Z,14.00
2023-03-19T08:18:57.750Z,13.90
2023-03-19T08:21:25.587Z,14.10
2023-03-19T08:23:54.320Z,14.20
2023-03-19T08:26:23.531Z,14.20
2023-03-19T08:28:52.305Z,14.30
2023-03-19T08:31:20.146Z,14.40
2023-03-19T08:33:48.049Z,14.60
2023-03-19T08:36:16.015Z,14.70
2023-03-19T08:38:44.581Z,14.80
2023-03-19T08:41:12.448Z,14.90
2023-03-19T08:43:41.684Z,14.90
2023-03-19T08:46:09.583Z,15.00
2023-03-19T08:48:39.659Z,15.00
2023-03-19T08:51:09.704Z,15.10
2023-03-19T08:53:38.590Z,15.10
2023-03-19T08:56:08.627Z,15.10
2023-03-19T08:58:36.583Z,15.10
2023-03-19T09:01:08.795Z,15.20
2023-03-19T09:03:36.907Z,15.40
2023-03-19T09:06:06.360Z,15.50
2023-03-19T09:08:34.954Z,15.60
2023-03-19T09:11:03.077Z,16.00
2023-03-19T09:13:31.097Z,15.90
2023-03-19T09:15:58.971Z,16.00
2023-03-19T09:18:28.424Z,15.80
2023-03-19T09:20:56.348Z,15.80
2023-03-19T09:23:24.565Z,15.80
2023-03-19T09:25:52.545Z,15.80
2023-03-19T09:28:21.231Z,15.90
2023-03-19T09:30:49.874Z,16.10
2023-03-19T09:33:18.740Z,16.30
2023-03-19T09:35:53.290Z,16.40
2023-03-19T09:38:21.867Z,16.40
2023-03-19T09:40:53.038Z,16.30
2023-03-19T09:43:45.691Z,16.30
2023-03-19T09:46:21.918Z,16.40
2023-03-19T09:48:55.139Z,16.70
2023-03-19T09:51:30.583Z,16.50
2023-03-19T09:54:01.311Z,16.70
2023-03-19T09:56:29.272Z,16.90
2023-03-19T09:58:57.298Z,17.00
2023-03-19T10:01:28.381Z,17.20
2023-03-19T10:04:20.695Z,17.30
2023-03-19T10:06:50.782Z,17.40
2023-03-19T10:09:39.806Z,17.50
2023-03-19T10:12:19.046Z,17.60
2023-03-19T10:15:02.165Z,17.70
2023-03-19T10:17:34.768Z,17.90
2023-03-19T10:20:07.108Z,18.00
2023-03-19T10:22:41.334Z,18.00
2023-03-19T10:25:14.031Z,18.00
2023-03-19T10:27:42.697Z,17.70
2023-03-19T10:30:16.975Z,17.50
2023-03-19T10:32:47.460Z,17.50
2023-03-19T10:35:20.768Z,17.50
2023-03-19T10:37:51.059Z,17.60
2023-03-19T10:40:25.327Z,17.70
2023-03-19T10:43:07.052Z,17.70
2023-03-19T10:45:38.846Z,17.60
2023-03-19T10:48:13.102Z,17.60
2023-03-19T10:50:49.484Z,17.50
2023-03-19T10:53:31.583Z,17.40
2023-03-19T10:56:03.511Z,17.30
2023-03-19T10:58:33.552Z,17.20
2023-03-19T11:01:06.847Z,17.20
2023-03-19T11:03:36.679Z,17.20
2023-03-19T11:06:18.177Z,17.20
2023-03-19T11:08:55.248Z,17.20
2023-03-19T11:11:28.149Z,17.20
2023-03-19T11:13:56.880Z,17.20
2023-03-19T11:16:25.260Z,17.20
2023-03-19T11:18:53.199Z,17.10
2023-03-19T11:21:29.357Z,17.10
2023-03-19T11:24:04.521Z,17.00
2023-03-19T11:26:32.526Z,17.10
2023-03-19T11:29:05.081Z,16.80
2023-03-19T11:31:40.622Z,16.70
2023-03-19T11:34:21.075Z,16.70
2023-03-19T11:36:57.816Z,16.60
2023-03-19T11:39:32.245Z,16.70
2023-03-19T11:42:26.484Z,16.90
2023-03-19T11:45:03.894Z,17.20
2023-03-19T11:47:38.846Z,17.20
2023-03-19T11:50:22.872Z,17.30
2023-03-19T11:53:09.092Z,17.30
2023-03-19T11:55:42.232Z,17.30
2023-03-19T11:58:35.044Z,17.50
2023-03-19T12:01:13.960Z,17.90
2023-03-19T12:04:03.811Z,18.20
2023-03-19T12:06:43.644Z,18.50
2023-03-19T12:09:20.536Z,18.50
2023-03-19T12:11:55.303Z,18.50
2023-03-19T12:14:35.899Z,18.60
2023-03-19T12:17:18.785Z,18.60
2023-03-19T12:20:10.319Z,18.40
2023-03-19T12:22:53.560Z,18.10
2023-03-19T12:25:30.498Z,18.00
2023-03-19T12:28:07.334Z,18.20
2023-03-19T12:30:39.054Z,17.90
2023-03-19T12:33:17.479Z,17.80
2023-03-19T12:35:49.853Z,17.70
2023-03-19T12:38:24.020Z,17.70
2023-03-19T12:40:58.345Z,17.60
2023-03-19T12:43:33.334Z,17.50
2023-03-19T12:46:08.065Z,17.60
2023-03-19T12:48:43.360Z,17.50
2023-03-19T12:51:16.906Z,17.40
2023-03-19T12:53:48.661Z,17.40
2023-03-19T12:56:21.294Z,17.40
2023-03-19T12:58:58.842Z,17.50
2023-03-19T13:01:31.744Z,17.50
2023-03-19T13:04:04.831Z,17.60
2023-03-19T13:06:37.548Z,17.80
2023-03-19T13:09:10.938Z,17.70
2023-03-19T13:11:47.294Z,17.60
2023-03-19T13:14:23.087Z,17.60
2023-03-19T13:16:58.618Z,17.60
2023-03-19T13:19:31.398Z,17.60
2023-03-19T13:22:04.096Z,17.60
2023-03-19T13:24:35.587Z,17.60
2023-03-19T13:27:05.006Z,17.50
2023-03-19T13:29:36.726Z,17.60
2023-03-19T13:32:09.030Z,17.80
2023-03-19T13:34:38.364Z,17.90
2023-03-19T13:37:13.935Z,18.00
2023-03-19T13:39:42.598Z,18.00
2023-03-19T13:42:37.120Z,18.00
2023-03-19T13:45:32.203Z,17.90
2023-03-19T13:48:37.364Z,17.70
2023-03-19T13:51:07.057Z,17.40
2023-03-19T13:53:38.745Z,17.30
2023-03-19T13:56:22.496Z,17.30
2023-03-19T13:59:25.265Z,17.30
2023-03-19T14:01:53.381Z,17.50
2023-03-19T14:04:26.369Z,18.00
2023-03-19T14:06:56.728Z,17.70
2023-03-19T14:09:42.291Z,17.80
2023-03-19T14:12:12.839Z,18.00
2023-03-19T14:14:43.239Z,18.00
2023-03-19T14:17:16.934Z,18.00
2023-03-19T14:19:46.438Z,18.10
2023-03-19T14:22:22.543Z,18.00
2023-03-19T14:25:03.852Z,17.90
2023-03-19T14:27:33.577Z,17.80
2023-03-19T14:30:09.320Z,18.00
2023-03-19T14:32:40.822Z,17.60
2023-03-19T14:35:16.929Z,17.60
2023-03-19T14:37:49.979Z,17.70
2023-03-19T14:40:21.398Z,17.60
2023-03-19T14:43:01.915Z,17.50
2023-03-19T14:45:51.721Z,17.40
2023-03-19T14:48:41.346Z,17.30
2023-03-19T14:51:39.079Z,17.30
2023-03-19T14:54:26.795Z,17.30
2023-03-19T14:56:57.580Z,17.30
2023-03-19T14:59:25.488Z,17.30
2023-03-19T15:01:54.568Z,17.40
2023-03-19T15:04:25.042Z,17.50
2023-03-19T15:06:56.954Z,17.60
2023-03-19T15:09:29.951Z,17.70
2023-03-19T15:12:33.744Z,17.70
2023-03-19T15:15:31.582Z,17.70
2023-03-19T15:18:04.170Z,17.70
2023-03-19T15:20:38.584Z,17.70
2023-03-19T15:23:20.034Z,17.60
2023-03-19T15:25:57.619Z,17.60
2023-03-19T15:28:28.220Z,17.60
2023-03-19T15:31:05.677Z,17.60
2023-03-19T15:33:45.570Z,17.60
2023-03-19T15:36:18.254Z,17.50
2023-03-19T15:38:52.007Z,17.50
2023-03-19T15:41:23.477Z,17.50
2023-03-19T15:43:52.178Z,17.50
2023-03-19T15:46:23.573Z,17.40
2023-03-19T15:48:57.544Z,17.40
2023-03-19T15:51:27.172Z,17.10
2023-03-19T15:53:55.838Z,16.90
2023-03-19T15:56:25.760Z,16.70
2023-03-19T15:58:58.158Z,16.50
2023-03-19T16:01:27.912Z,16.30
2023-03-19T16:03:59.596Z,16.10
2023-03-19T16:06:30.303Z,15.90
2023-03-19T16:09:14.370Z,15.80
2023-03-19T16:11:44.877Z,15.70
2023-03-19T16:14:22.962Z,15.70
2023-03-19T16:16:51.082Z,15.60
2023-03-19T16:19:33.898Z,15.70
2023-03-19T16:22:03.516Z,15.40
2023-03-19T16:24:37.489Z,15.40
2023-03-19T16:27:12.465Z,15.20
2023-03-19T16:29:42.795Z,15.20
2023-03-19T16:32:21.037Z,15.90
2023-03-19T16:34:50.422Z,15.50
2023-03-19T16:37:39.776Z,15.50
2023-03-19T16:40:44.310Z,15.00
2023-03-19T16:43:21.475Z,15.10
2023-03-19T16:45:53.516Z,15.40
2023-03-19T16:48:21.427Z,15.30
2023-03-19T16:50:49.977Z,15.30
2023-03-19T16:53:24.357Z,15.40
2023-03-19T16:55:53.341Z,15.10
2023-03-19T16:58:29.521Z,15.10
2023-03-19T17:00:57.534Z,15.10
2023-03-19T17:03:25.988Z,15.10
2023-03-19T17:05:53.965Z,15.00
2023-03-19T17:08:23.197Z,15.20
2023-03-19T17:10:53.029Z,14.90
2023-03-19T17:13:27.977Z,14.80
2023-03-19T17:15:58.016Z,14.70
2023-03-19T17:18:29.912Z,14.90
2023-03-19T17:21:01.323Z,14.50
2023-03-19T17:23:30.409Z,14.30
2023-03-19T17:25:59.063Z,15.30
2023-03-19T17:28:28.312Z,14.10
2023-03-19T17:30:56.643Z,14.00
2023-03-19T17:33:26.656Z,13.80
2023-03-19T17:35:56.134Z,13.70
2023-03-19T17:38:29.994Z,13.50
2023-03-19T17:40:57.890Z,13.40
2023-03-19T17:43:25.801Z,13.40
2023-03-19T17:45:56.986Z,13.10
2023-03-19T17:48:28.138Z,13.40
2023-03-19T17:51:01.016Z,12.80
2023-03-19T17:53:30.222Z,13.00
2023-03-19T17:55:58.217Z,12.70
2023-03-19T17:58:26.340Z,13.80
2023-03-19T18:00:55.750Z,12.40
2023-03-19T18:03:25.919Z,12.70
2023-03-19T18:05:53.929Z,12.00
2023-03-19T18:08:23.608Z,12.00
2023-03-19T18:10:51.878Z,12.10
2023-03-19T18:13:19.782Z,13.60
2023-03-19T18:15:48.006Z,10.90
2023-03-19T18:18:21.948Z,12.80
2023-03-19T18:20:50.211Z,11.50
2023-03-19T18:23:18.286Z,11.40
2023-03-19T18:25:47.211Z,11.40
2023-03-19T18:28:15.133Z,11.20
2023-03-19T18:30:44.397Z,11.10
2023-03-19T18:33:16.414Z,13.00
2023-03-19T18:35:46.566Z,11.00
2023-03-19T18:38:17.480Z,11.20
2023-03-19T18:40:45.426Z,12.30
2023-03-19T18:43:15.937Z,11.70
2023-03-19T18:45:45.367Z,11.10
2023-03-19T18:48:21.781Z,10.70
2023-03-19T18:50:52.062Z,10.60
2023-03-19T18:53:20.002Z,10.50
2023-03-19T18:55:48.773Z,10.40
2023-03-19T18:58:20.478Z,10.40
2023-03-19T19:00:49.176Z,10.30
2023-03-19T19:03:20.102Z,10.20
2023-03-19T19:05:49.610Z,10.10
2023-03-19T19:08:21.288Z,10.10
2023-03-19T19:10:51.980Z,10.00
2023-03-19T19:13:21.832Z,10.00
2023-03-19T19:15:49.900Z,9.90
2023-03-19T19:18:20.383Z,9.90
2023-03-19T19:20:49.461Z,9.80
2023-03-19T19:23:20.305Z,9.80
2023-03-19T19:25:51.000Z,9.60
2023-03-19T19:28:22.480Z,10.90
2023-03-19T19:30:50.734Z,10.40
2023-03-19T19:33:20.311Z,10.50
2023-03-19T19:35:48.646Z,9.60
2023-03-19T19:38:18.358Z,9.50
2023-03-19T19:40:49.033Z,9.60
2023-03-19T19:43:20.433Z,9.60
2023-03-19T19:45:50.117Z,11.70
2023-03-19T19:48:19.929Z,9.60
2023-03-19T19:50:50.621Z,9.70
2023-03-19T19:53:20.593Z,9.70
2023-03-19T19:55:48.823Z,9.70
2023-03-19T19:58:20.312Z,9.70
2023-03-19T20:01:02.317Z,9.70
2023-03-19T20:03:32.739Z,9.80
2023-03-19T20:06:01.818Z,9.80
2023-03-19T20:08:31.214Z,9.90
2023-03-19T20:10:59.118Z,9.90
2023-03-19T20:13:29.433Z,10.10
2023-03-19T20:15:59.434Z,10.00
2023-03-19T20:18:30.968Z,10.00
2023-03-19T20:20:59.403Z,10.10
2023-03-19T20:23:27.717Z,10.10
2023-03-19T20:25:58.222Z,10.10
2023-03-19T20:28:30.441Z,10.10
2023-03-19T20:30:58.432Z,11.20
2023-03-19T20:33:26.424Z,10.10
2023-03-19T20:35:54.353Z,10.20
2023-03-19T20:38:22.297Z,11.20
2023-03-19T20:40:51.536Z,10.80
2023-03-19T20:43:28.227Z,10.30
2023-03-19T20:45:57.683Z,10.20
2023-03-19T20:48:27.227Z,10.20
2023-03-19T20:50:56.123Z,10.20
2023-03-19T20:53:24.337Z,10.20
2023-03-19T20:55:52.328Z,10.20
2023-03-19T20:58:25.548Z,10.30
2023-03-19T21:00:53.958Z,11.00
2023-03-19T21:03:23.481Z,10.30
2023-03-19T21:05:55.265Z,10.20
2023-03-19T21:08:32.320Z,10.20
2023-03-19T21:11:00.703Z,10.20
2023-03-19T21:13:31.771Z,11.20
2023-03-19T21:15:59.991Z,10.20
2023-03-19T21:18:28.020Z,10.30
2023-03-19T21:20:57.614Z,10.50
2023-03-19T21:23:31.413Z,11.70
2023-03-19T21:26:00.012Z,10.30
2023-03-19T21:28:31.049Z,10.20
2023-03-19T21:30:59.107Z,10.30
2023-03-19T21:33:28.964Z,10.30
2023-03-19T21:35:58.156Z,10.30
2023-03-19T21:38:26.614Z,10.30
2023-03-19T21:40:58.889Z,10.30
2023-03-19T21:43:34.369Z,11.10
2023-03-19T21:46:17.418Z,10.30
2023-03-19T21:48:50.897Z,10.20
2023-03-19T21:51:18.805Z,10.20
2023-03-19T21:53:47.549Z,11.00
2023-03-19T21:56:22.269Z,10.20
2023-03-19T21:58:53.017Z,10.10
2023-03-19T22:01:23.889Z,10.00
2023-03-19T22:03:52.378Z,10.00
2023-03-19T22:06:21.966Z,10.00
2023-03-19T22:08:50.924Z,10.00
2023-03-19T22:11:22.422Z,9.90
2023-03-19T22:13:52.166Z,10.00
2023-03-19T22:16:23.031Z,10.10
2023-03-19T22:18:52.119Z,9.90
2023-03-19T22:21:21.975Z,9.90
2023-03-19T22:23:50.804Z,9.90
2023-03-19T22:26:32.962Z,9.90
2023-03-19T22:29:05.264Z,9.90
2023-03-19T22:31:34.107Z,9.90
2023-03-19T22:34:02.188Z,9.80
2023-03-19T22:36:30.168Z,9.80
2023-03-19T22:38:58.057Z,9.90
2023-03-19T22:41:29.381Z,9.90
2023-03-19T22:43:59.670Z,9.90
2023-03-19T22:46:29.527Z,9.80
2023-03-19T22:48:57.908Z,9.90
2023-03-19T22:51:28.182Z,9.90
2023-03-19T22:53:56.091Z,9.80
2023-03-19T22:56:24.258Z,9.90
2023-03-19T22:58:52.636Z,9.90
2023-03-19T23:01:44.232Z,9.80
2023-03-19T23:04:18.876Z,9.80
2023-03-19T23:06:53.829Z,9.90
2023-03-19T23:09:24.061Z,9.90
2023-03-19T23:11:52.552Z,9.90
2023-03-19T23:14:30.484Z,9.90
2023-03-19T23:17:03.047Z,9.80
2023-03-19T23:19:32.375Z,9.90
2023-03-19T23:22:01.233Z,9.90
2023-03-19T23:24:30.420Z,9.90
2023-03-19T23:26:59.879Z,9.90
2023-03-19T23:29:30.816Z,9.90
2023-03-19T23:32:00.451Z,9.90
2023-03-19T23:34:29.369Z,9.90
2023-03-19T23:36:57.896Z,9.90
2023-03-19T23:39:25.891Z,9.90
2023-03-19T23:41:57.721Z,9.90
2023-03-19T23:44:26.321Z,9.90
2023-03-19T23:46:54.772Z,9.90
2023-03-19T23:49:29.622Z,9.90
2023-03-19T23:51:57.888Z,9.90
2023-03-19T23:54:29.716Z,9.80
2023-03-19T23:56:59.617Z,9.80
2023-03-19T23:59:30.576Z,9.80
